Cmb Sakura — 3EGO3 — position and weather

sailwx.info

Track history (hours):
 
Tides and Currents Weather Stations Pressure Air Temp Water Temp Dewpoint Dewpoint Depression Visibility Wind Speed Wind Dir Waves Ship Positions

Cmb Sakura

Last reported at 2014-Oct-04 09:33 UTC. Time now 2014-Oct-25 21:13 UTC.
Position N 48°18' W 125°55'.
Warning: this ship's position is 21 days out of date.

Length 225 m; draft 13.9 m.

Type: Cargo ship. MMSI: 371784000.

Date/timePositionNaut miles runAvg speedWind from/ knotsBaromVisibWave heightAir tempDewpointWater temp
2014-Oct-04 09:33N 48°18' W 125°55'9 9.3
2014-Oct-04 08:33N 48°22' W 125°42'9 9.1
2014-Oct-04 07:33N 48°26' W 125°29'9 9.2
2014-Oct-04 06:33N 48°28' W 125°16'10 9.6
2014-Oct-04 05:33N 48°30' W 125°02'1210.4
2014-Oct-04 04:24N 48°30' W 124°44'1310.9
2014-Oct-04 03:14N 48°25' W 124°26'911.7
2014-Oct-04 02:26N 48°22' W 124°13'1112.0
2014-Oct-04 01:33N 48°18' W 123°58'1212.3
2014-Oct-04 00:33N 48°16' W 123°40'1010.0
2014-Oct-03 23:33N 48°20' W 123°26'1010.0
2014-Oct-03 22:34N 48°25' W 123°13'1312.7
2014-Oct-03 21:33N 48°38' W 123°14'10 9.9
2014-Oct-03 20:33N 48°45' W 123°05'8 8.5
2014-Oct-03 19:34N 48°54' W 123°09'1212.0
2014-Oct-03 18:33N 49°02' W 123°21'1111.5
2014-Oct-03 17:33N 49°14' W 123°21'10 9.6
2014-Oct-03 16:33N 49°19' W 123°08'1 0.9
2014-Oct-03 15:32N 49°19' W 123°07'0 0.0
2014-Oct-03 14:32N 49°19' W 123°07'0 0.0
2014-Oct-03 13:32N 49°19' W 123°07'0 0.0
2014-Oct-03 12:32N 49°19' W 123°07'0 0.0
2014-Oct-03 11:32N 49°19' W 123°07'0 0.0
2014-Oct-03 10:32N 49°19' W 123°07'0 0.0
2014-Oct-03 09:32N 49°19' W 123°07'0 0.0
2014-Oct-03 08:32N 49°19' W 123°07'0 0.0
2014-Oct-03 07:32N 49°19' W 123°07'0 0.0
2014-Oct-03 06:32N 49°19' W 123°07'0 0.0
2014-Oct-03 05:32N 49°19' W 123°07'0 0.0
2014-Oct-03 04:32N 49°19' W 123°07'0 0.0
2014-Oct-03 03:32N 49°19' W 123°07'0 0.0
2014-Oct-03 02:32N 49°19' W 123°07'0 0.0
2014-Oct-03 01:32N 49°19' W 123°07'0 0.0
2014-Oct-03 00:32N 49°19' W 123°07'0 0.0
2014-Oct-02 23:32N 49°19' W 123°07'0 0.0
2014-Oct-02 22:32N 49°19' W 123°07'1 1.3
2014-Oct-02 21:33N 49°18' W 123°05'4 4.3
2014-Oct-02 20:33N 49°18' W 122°59'4 4.1
2014-Oct-02 19:33N 49°18' W 122°53'1 0.5
2014-Oct-02 18:31N 49°17' W 122°52'0 0.0
2014-Oct-02 17:31N 49°17' W 122°52'0 0.0
2014-Oct-02 16:31N 49°17' W 122°52'0 0.0
2014-Oct-02 15:31N 49°17' W 122°52'0 0.0
2014-Oct-02 14:31N 49°17' W 122°52'0 0.0
2014-Oct-02 13:31N 49°17' W 122°52'0 0.0
2014-Oct-02 12:31N 49°17' W 122°52'0 0.0
2014-Oct-02 11:31N 49°17' W 122°52'0 0.0
2014-Oct-02 10:31N 49°17' W 122°52'0 0.0
2014-Oct-02 09:31N 49°17' W 122°52'0 0.0
2014-Oct-02 08:31N 49°17' W 122°52'0 0.0
2014-Oct-02 07:31N 49°17' W 122°52'0 0.0
2014-Oct-02 06:31N 49°17' W 122°52'0 0.0
2014-Oct-02 05:28N 49°17' W 122°52'0 0.0
2014-Oct-02 04:31N 49°17' W 122°52'0 0.0
2014-Oct-02 03:31N 49°17' W 122°52'0 0.0
2014-Oct-02 02:31N 49°17' W 122°52'0 0.0
2014-Oct-02 01:31N 49°17' W 122°52'0 0.0
2014-Oct-02 00:31N 49°17' W 122°52'0 0.0
2014-Oct-01 23:31N 49°17' W 122°52'0 0.0
2014-Oct-01 22:28N 49°17' W 122°52'0 0.0
2014-Oct-01 21:31N 49°17' W 122°52'0 0.0
2014-Oct-01 20:31N 49°17' W 122°52'0 0.0
2014-Oct-01 19:31N 49°17' W 122°52'0 0.0
2014-Oct-01 18:28N 49°17' W 122°52'0 0.0
2014-Oct-01 17:31N 49°17' W 122°52'0 0.0
2014-Oct-01 16:31N 49°17' W 122°52'0 0.0
2014-Oct-01 15:31N 49°17' W 122°52'0 0.0
2014-Oct-01 14:31N 49°17' W 122°52'0 0.0
2014-Oct-01 13:31N 49°17' W 122°52'0 0.0
2014-Oct-01 12:28N 49°17' W 122°52'0 0.0
2014-Oct-01 11:31N 49°17' W 122°52'0 0.0
2014-Oct-01 10:31N 49°17' W 122°52'0 0.0
2014-Oct-01 09:31N 49°17' W 122°52'0 0.0
2014-Oct-01 08:31N 49°17' W 122°52'0 0.0
2014-Oct-01 07:31N 49°17' W 122°52'0 0.0
2014-Oct-01 06:31N 49°17' W 122°52'0 0.0
2014-Oct-01 05:31N 49°17' W 122°52'0 0.0
2014-Oct-01 04:31N 49°17' W 122°52'0 0.0
2014-Oct-01 03:31N 49°17' W 122°52'0 0.0
2014-Oct-01 02:31N 49°17' W 122°52'0 0.0
2014-Oct-01 01:31N 49°17' W 122°52'0 0.0
2014-Oct-01 00:31N 49°17' W 122°52'0 0.0
2014-Sep-30 23:31N 49°17' W 122°52'0 0.0
2014-Sep-30 22:31N 49°17' W 122°52'0 0.0
2014-Sep-30 21:31N 49°17' W 122°52'0 0.0
2014-Sep-30 20:31N 49°17' W 122°52'1 0.5
2014-Sep-30 19:33N 49°18' W 122°53'7 6.6
2014-Sep-30 18:34N 49°18' W 123°03'6 5.6
2014-Sep-30 17:34N 49°19' W 123°11'1010.3
2014-Sep-30 16:34N 49°10' W 123°20'1111.0
2014-Sep-30 15:34N 48°60' W 123°14'1212.1
2014-Sep-30 14:33N 48°51' W 123°02'1111.2
2014-Sep-30 13:34N 48°42' W 123°12'1110.8
2014-Sep-30 12:33N 48°32' W 123°11'9 9.0
2014-Sep-30 11:34N 48°23' W 123°15'7 6.8
2014-Sep-30 10:34N 48°20' W 123°24'3 3.4
2014-Sep-30 09:34N 48°17' W 123°26'3 3.3
2014-Sep-30 08:34N 48°14' W 123°27'5 5.2
2014-Sep-30 07:34N 48°09' W 123°23'1312.8
2014-Sep-30 06:33N 48°13' W 123°04'1514.6
2014-Sep-30 05:33N 48°09' W 122°43'1515.5
2014-Sep-30 04:34N 47°56' W 122°30'1514.7
2014-Sep-30 03:34N 47°42' W 122°27'1514.9
2014-Sep-30 02:34N 47°27' W 122°24'10 9.6
2014-Sep-30 01:33N 47°17' W 122°25'0 0.2
2014-Sep-30 00:31N 47°17' W 122°25'0 0.1
2014-Sep-29 23:31N 47°17' W 122°25'0 0.1
2014-Sep-29 22:31N 47°17' W 122°25'0 0.0
2014-Sep-29 21:31N 47°17' W 122°25'0 0.1
2014-Sep-29 20:31N 47°17' W 122°25'0 0.1
2014-Sep-29 19:31N 47°17' W 122°25'0 0.0
2014-Sep-29 18:31N 47°17' W 122°25'0 0.0
2014-Sep-29 17:25N 47°17' W 122°25'0 0.0
2014-Sep-29 16:31N 47°17' W 122°25'0 0.0
2014-Sep-29 15:31N 47°17' W 122°25'0 0.2
2014-Sep-29 14:28N 47°17' W 122°25'0 0.1
2014-Sep-29 13:31N 47°17' W 122°25'0 0.1
2014-Sep-29 12:28N 47°17' W 122°25'0 0.2
2014-Sep-29 11:31N 47°17' W 122°25'0 0.1
2014-Sep-29 10:31N 47°17' W 122°25'0 0.1
2014-Sep-29 09:25N 47°17' W 122°25'0 0.1
2014-Sep-29 08:25N 47°17' W 122°25'0 0.1
2014-Sep-29 07:31N 47°17' W 122°25'0 0.0
2014-Sep-29 06:31N 47°17' W 122°25'0 0.2
2014-Sep-29 05:31N 47°17' W 122°25'0 0.0
2014-Sep-29 04:22N 47°17' W 122°25'0 0.2
2014-Sep-29 03:22N 47°17' W 122°25'0 0.0
2014-Sep-29 02:28N 47°17' W 122°25'0 0.0
2014-Sep-29 01:25N 47°17' W 122°25'0 0.2
2014-Sep-29 00:28N 47°17' W 122°25'0 0.0
2014-Sep-28 23:22N 47°17' W 122°25'0 0.0
2014-Sep-28 22:31N 47°17' W 122°25'0 0.1
2014-Sep-28 20:31N 47°17' W 122°25'0 0.1
2014-Sep-28 19:31N 47°17' W 122°25'0 0.2
2014-Sep-28 18:31N 47°17' W 122°25'0 0.1
2014-Sep-28 17:31N 47°17' W 122°25'0 0.0
2014-Sep-28 16:28N 47°17' W 122°25'0 0.0
2014-Sep-28 15:28N 47°17' W 122°25'0 0.0
2014-Sep-28 14:13N 47°17' W 122°25'0 0.1
2014-Sep-28 13:31N 47°17' W 122°25'0 0.1
2014-Sep-28 12:10N 47°17' W 122°25'0 0.0
2014-Sep-28 11:31N 47°17' W 122°25'0 0.2
2014-Sep-28 10:28N 47°17' W 122°25'0 0.0
2014-Sep-28 09:31N 47°17' W 122°25'0 0.1
2014-Sep-28 08:31N 47°17' W 122°25'0 0.0
2014-Sep-28 07:31N 47°17' W 122°25'0 0.1
2014-Sep-28 06:25N 47°17' W 122°25'0 0.1
2014-Sep-28 05:31N 47°17' W 122°25'0 0.1
2014-Sep-28 04:31N 47°17' W 122°25'0 0.1
2014-Sep-28 03:22N 47°17' W 122°25'0 0.0
2014-Sep-28 02:28N 47°17' W 122°25'0 0.0
2014-Sep-28 01:31N 47°17' W 122°25'0 0.1
2014-Sep-28 00:22N 47°17' W 122°25'0 0.1
2014-Sep-27 23:31N 47°17' W 122°25'0 0.0
2014-Sep-27 22:25N 47°17' W 122°25'0 0.0
2014-Sep-27 21:25N 47°17' W 122°25'0 0.0
2014-Sep-27 20:31N 47°17' W 122°25'0 0.1
2014-Sep-27 19:19N 47°17' W 122°25'0 0.1
2014-Sep-27 18:28N 47°17' W 122°25'0 0.0
2014-Sep-27 17:31N 47°17' W 122°25'0 0.0
2014-Sep-27 16:31N 47°17' W 122°25'0 0.1
2014-Sep-27 15:28N 47°17' W 122°25'0 0.1
2014-Sep-27 14:31N 47°17' W 122°25'0 0.0
2014-Sep-27 13:31N 47°17' W 122°25'0 0.0
2014-Sep-27 12:31N 47°17' W 122°25'0 0.0
2014-Sep-27 11:31N 47°17' W 122°25'0 0.1
2014-Sep-27 10:31N 47°17' W 122°25'0 0.0
2014-Sep-27 09:31N 47°17' W 122°25'0 0.1
2014-Sep-27 08:31N 47°17' W 122°25'0 0.1
2014-Sep-27 07:31N 47°17' W 122°25'0 0.1
2014-Sep-27 06:31N 47°17' W 122°25'0 0.0
2014-Sep-27 05:31N 47°17' W 122°25'0 0.1
2014-Sep-27 04:31N 47°17' W 122°25'0 0.1
2014-Sep-27 03:25N 47°17' W 122°25'0 0.1
2014-Sep-27 02:31N 47°17' W 122°25'0 0.1
2014-Sep-27 01:31N 47°17' W 122°25'0 0.0
2014-Sep-27 00:31N 47°17' W 122°25'0 0.1
2014-Sep-26 23:31N 47°17' W 122°25'0 0.0
2014-Sep-26 22:31N 47°17' W 122°25'0 0.1
2014-Sep-26 21:31N 47°17' W 122°25'0 0.0
2014-Sep-26 20:31N 47°17' W 122°25'0 0.1
2014-Sep-26 19:31N 47°17' W 122°25'0 0.0
2014-Sep-26 18:31N 47°17' W 122°25'0 0.0
2014-Sep-26 17:31N 47°17' W 122°25'0 0.1
2014-Sep-26 16:31N 47°17' W 122°25'0 0.0
2014-Sep-26 15:19N 47°17' W 122°25'0 0.0
2014-Sep-26 13:22N 47°17' W 122°25'0 0.1
2014-Sep-26 12:31N 47°17' W 122°25'0 0.1
2014-Sep-26 11:25N 47°17' W 122°25'0 0.1
2014-Sep-26 10:31N 47°17' W 122°25'0 0.0
2014-Sep-26 08:31N 47°17' W 122°25'0 0.0
2014-Sep-26 07:31N 47°17' W 122°25'0 0.0
2014-Sep-26 06:28N 47°17' W 122°25'0 0.0
2014-Sep-26 05:22N 47°17' W 122°25'0 0.0
2014-Sep-26 04:31N 47°17' W 122°25'0 0.1
2014-Sep-26 03:31N 47°17' W 122°25'0 0.1
2014-Sep-26 02:31N 47°17' W 122°25'0 0.1
2014-Sep-26 01:28N 47°17' W 122°25'0 0.0
2014-Sep-25 23:31N 47°17' W 122°25'0 0.0
2014-Sep-25 22:25N 47°17' W 122°25'0 0.1
2014-Sep-25 21:31N 47°17' W 122°25'0 0.1
2014-Sep-25 20:28N 47°17' W 122°25'0 0.1
2014-Sep-25 19:19N 47°17' W 122°25'0 0.1
2014-Sep-25 18:28N 47°17' W 122°25'0 0.0
2014-Sep-25 17:19N 47°17' W 122°25'0 0.1
2014-Sep-25 16:28N 47°17' W 122°25'0 0.1
2014-Sep-25 15:31N 47°17' W 122°25'0 0.1
2014-Sep-25 14:22N 47°17' W 122°25'0 0.0
2014-Sep-25 13:28N 47°17' W 122°25'0 0.2
2014-Sep-25 12:22N 47°17' W 122°25'0 0.0
2014-Sep-25 11:22N 47°17' W 122°25'0 0.0
2014-Sep-25 10:31N 47°17' W 122°25'0 0.2
2014-Sep-25 09:25N 47°17' W 122°25'0 0.1
2014-Sep-25 08:31N 47°17' W 122°25'0 0.1
2014-Sep-25 07:31N 47°17' W 122°25'0 0.0
2014-Sep-25 05:31N 47°17' W 122°25'0 0.1
2014-Sep-25 04:25N 47°17' W 122°25'0 0.0
2014-Sep-25 03:31N 47°17' W 122°25'0 0.1
2014-Sep-25 02:19N 47°17' W 122°25'0 0.1
2014-Sep-25 01:13N 47°17' W 122°25'0 0.1
2014-Sep-25 00:31N 47°17' W 122°25'0 0.1
2014-Sep-24 23:31N 47°17' W 122°25'0 0.0
2014-Sep-24 22:31N 47°17' W 122°25'0 0.1
2014-Sep-24 21:31N 47°17' W 122°25'0 0.1
2014-Sep-24 20:07N 47°17' W 122°25'0 0.0
2014-Sep-24 19:31N 47°17' W 122°25'0 0.0
2014-Sep-24 18:31N 47°17' W 122°25'0 0.1
2014-Sep-24 17:31N 47°17' W 122°25'0 0.2
2014-Sep-24 16:31N 47°17' W 122°25'  
Track history (hours):
 
Tides and Currents Weather Stations Pressure Air Temp Water Temp Dewpoint Dewpoint Depression Visibility Wind Speed Wind Dir Waves Ship Positions

Cmb Sakura

Last reported at 2014-Oct-04 09:33 UTC. Time now 2014-Oct-25 21:13 UTC.
Position N 48°18' W 125°55'.
Warning: this ship's position is 21 days out of date.

Length 225 m; draft 13.9 m.

Type: Cargo ship. MMSI: 371784000.

Date/timePositionNaut miles runAvg speedWind from/ knotsBaromVisibWave heightAir tempDewpointWater temp
2014-Oct-04 09:33N 48°18' W 125°55'9 9.3
2014-Oct-04 08:33N 48°22' W 125°42'9 9.1
2014-Oct-04 07:33N 48°26' W 125°29'9 9.2
2014-Oct-04 06:33N 48°28' W 125°16'10 9.6
2014-Oct-04 05:33N 48°30' W 125°02'1210.4
2014-Oct-04 04:24N 48°30' W 124°44'1310.9
2014-Oct-04 03:14N 48°25' W 124°26'911.7
2014-Oct-04 02:26N 48°22' W 124°13'1112.0
2014-Oct-04 01:33N 48°18' W 123°58'1212.3
2014-Oct-04 00:33N 48°16' W 123°40'1010.0
2014-Oct-03 23:33N 48°20' W 123°26'1010.0
2014-Oct-03 22:34N 48°25' W 123°13'1312.7
2014-Oct-03 21:33N 48°38' W 123°14'10 9.9
2014-Oct-03 20:33N 48°45' W 123°05'8 8.5
2014-Oct-03 19:34N 48°54' W 123°09'1212.0
2014-Oct-03 18:33N 49°02' W 123°21'1111.5
2014-Oct-03 17:33N 49°14' W 123°21'10 9.6
2014-Oct-03 16:33N 49°19' W 123°08'1 0.9
2014-Oct-03 15:32N 49°19' W 123°07'0 0.0
2014-Oct-03 14:32N 49°19' W 123°07'0 0.0
2014-Oct-03 13:32N 49°19' W 123°07'0 0.0
2014-Oct-03 12:32N 49°19' W 123°07'0 0.0
2014-Oct-03 11:32N 49°19' W 123°07'0 0.0
2014-Oct-03 10:32N 49°19' W 123°07'0 0.0
2014-Oct-03 09:32N 49°19' W 123°07'0 0.0
2014-Oct-03 08:32N 49°19' W 123°07'0 0.0
2014-Oct-03 07:32N 49°19' W 123°07'0 0.0
2014-Oct-03 06:32N 49°19' W 123°07'0 0.0
2014-Oct-03 05:32N 49°19' W 123°07'0 0.0
2014-Oct-03 04:32N 49°19' W 123°07'0 0.0
2014-Oct-03 03:32N 49°19' W 123°07'0 0.0
2014-Oct-03 02:32N 49°19' W 123°07'0 0.0
2014-Oct-03 01:32N 49°19' W 123°07'0 0.0
2014-Oct-03 00:32N 49°19' W 123°07'0 0.0
2014-Oct-02 23:32N 49°19' W 123°07'0 0.0
2014-Oct-02 22:32N 49°19' W 123°07'1 1.3
2014-Oct-02 21:33N 49°18' W 123°05'4 4.3
2014-Oct-02 20:33N 49°18' W 122°59'4 4.1
2014-Oct-02 19:33N 49°18' W 122°53'1 0.5
2014-Oct-02 18:31N 49°17' W 122°52'0 0.0
2014-Oct-02 17:31N 49°17' W 122°52'0 0.0
2014-Oct-02 16:31N 49°17' W 122°52'0 0.0
2014-Oct-02 15:31N 49°17' W 122°52'0 0.0
2014-Oct-02 14:31N 49°17' W 122°52'0 0.0
2014-Oct-02 13:31N 49°17' W 122°52'0 0.0
2014-Oct-02 12:31N 49°17' W 122°52'0 0.0
2014-Oct-02 11:31N 49°17' W 122°52'0 0.0
2014-Oct-02 10:31N 49°17' W 122°52'0 0.0
2014-Oct-02 09:31N 49°17' W 122°52'0 0.0
2014-Oct-02 08:31N 49°17' W 122°52'0 0.0
2014-Oct-02 07:31N 49°17' W 122°52'0 0.0
2014-Oct-02 06:31N 49°17' W 122°52'0 0.0
2014-Oct-02 05:28N 49°17' W 122°52'0 0.0
2014-Oct-02 04:31N 49°17' W 122°52'0 0.0
2014-Oct-02 03:31N 49°17' W 122°52'0 0.0
2014-Oct-02 02:31N 49°17' W 122°52'0 0.0
2014-Oct-02 01:31N 49°17' W 122°52'0 0.0
2014-Oct-02 00:31N 49°17' W 122°52'0 0.0
2014-Oct-01 23:31N 49°17' W 122°52'0 0.0
2014-Oct-01 22:28N 49°17' W 122°52'0 0.0
2014-Oct-01 21:31N 49°17' W 122°52'0 0.0
2014-Oct-01 20:31N 49°17' W 122°52'0 0.0
2014-Oct-01 19:31N 49°17' W 122°52'0 0.0
2014-Oct-01 18:28N 49°17' W 122°52'0 0.0
2014-Oct-01 17:31N 49°17' W 122°52'0 0.0
2014-Oct-01 16:31N 49°17' W 122°52'0 0.0
2014-Oct-01 15:31N 49°17' W 122°52'0 0.0
2014-Oct-01 14:31N 49°17' W 122°52'0 0.0
2014-Oct-01 13:31N 49°17' W 122°52'0 0.0
2014-Oct-01 12:28N 49°17' W 122°52'0 0.0
2014-Oct-01 11:31N 49°17' W 122°52'0 0.0
2014-Oct-01 10:31N 49°17' W 122°52'0 0.0
2014-Oct-01 09:31N 49°17' W 122°52'0 0.0
2014-Oct-01 08:31N 49°17' W 122°52'0 0.0
2014-Oct-01 07:31N 49°17' W 122°52'0 0.0
2014-Oct-01 06:31N 49°17' W 122°52'0 0.0
2014-Oct-01 05:31N 49°17' W 122°52'0 0.0
2014-Oct-01 04:31N 49°17' W 122°52'0 0.0
2014-Oct-01 03:31N 49°17' W 122°52'0 0.0
2014-Oct-01 02:31N 49°17' W 122°52'0 0.0
2014-Oct-01 01:31N 49°17' W 122°52'0 0.0
2014-Oct-01 00:31N 49°17' W 122°52'0 0.0
2014-Sep-30 23:31N 49°17' W 122°52'0 0.0
2014-Sep-30 22:31N 49°17' W 122°52'0 0.0
2014-Sep-30 21:31N 49°17' W 122°52'0 0.0
2014-Sep-30 20:31N 49°17' W 122°52'1 0.5
2014-Sep-30 19:33N 49°18' W 122°53'7 6.6
2014-Sep-30 18:34N 49°18' W 123°03'6 5.6
2014-Sep-30 17:34N 49°19' W 123°11'1010.3
2014-Sep-30 16:34N 49°10' W 123°20'1111.0
2014-Sep-30 15:34N 48°60' W 123°14'1212.1
2014-Sep-30 14:33N 48°51' W 123°02'1111.2
2014-Sep-30 13:34N 48°42' W 123°12'1110.8
2014-Sep-30 12:33N 48°32' W 123°11'9 9.0
2014-Sep-30 11:34N 48°23' W 123°15'7 6.8
2014-Sep-30 10:34N 48°20' W 123°24'3 3.4
2014-Sep-30 09:34N 48°17' W 123°26'3 3.3
2014-Sep-30 08:34N 48°14' W 123°27'5 5.2
2014-Sep-30 07:34N 48°09' W 123°23'1312.8
2014-Sep-30 06:33N 48°13' W 123°04'1514.6
2014-Sep-30 05:33N 48°09' W 122°43'1515.5
2014-Sep-30 04:34N 47°56' W 122°30'1514.7
2014-Sep-30 03:34N 47°42' W 122°27'1514.9
2014-Sep-30 02:34N 47°27' W 122°24'10 9.6
2014-Sep-30 01:33N 47°17' W 122°25'0 0.2
2014-Sep-30 00:31N 47°17' W 122°25'0 0.1
2014-Sep-29 23:31N 47°17' W 122°25'0 0.1
2014-Sep-29 22:31N 47°17' W 122°25'0 0.0
2014-Sep-29 21:31N 47°17' W 122°25'0 0.1
2014-Sep-29 20:31N 47°17' W 122°25'0 0.1
2014-Sep-29 19:31N 47°17' W 122°25'0 0.0
2014-Sep-29 18:31N 47°17' W 122°25'0 0.0
2014-Sep-29 17:25N 47°17' W 122°25'0 0.0
2014-Sep-29 16:31N 47°17' W 122°25'0 0.0
2014-Sep-29 15:31N 47°17' W 122°25'0 0.2
2014-Sep-29 14:28N 47°17' W 122°25'0 0.1
2014-Sep-29 13:31N 47°17' W 122°25'0 0.1
2014-Sep-29 12:28N 47°17' W 122°25'0 0.2
2014-Sep-29 11:31N 47°17' W 122°25'0 0.1
2014-Sep-29 10:31N 47°17' W 122°25'0 0.1
2014-Sep-29 09:25N 47°17' W 122°25'0 0.1
2014-Sep-29 08:25N 47°17' W 122°25'0 0.1
2014-Sep-29 07:31N 47°17' W 122°25'0 0.0
2014-Sep-29 06:31N 47°17' W 122°25'0 0.2
2014-Sep-29 05:31N 47°17' W 122°25'0 0.0
2014-Sep-29 04:22N 47°17' W 122°25'0 0.2
2014-Sep-29 03:22N 47°17' W 122°25'0 0.0
2014-Sep-29 02:28N 47°17' W 122°25'0 0.0
2014-Sep-29 01:25N 47°17' W 122°25'0 0.2
2014-Sep-29 00:28N 47°17' W 122°25'0 0.0
2014-Sep-28 23:22N 47°17' W 122°25'0 0.0
2014-Sep-28 22:31N 47°17' W 122°25'0 0.1
2014-Sep-28 20:31N 47°17' W 122°25'0 0.1
2014-Sep-28 19:31N 47°17' W 122°25'0 0.2
2014-Sep-28 18:31N 47°17' W 122°25'0 0.1
2014-Sep-28 17:31N 47°17' W 122°25'0 0.0
2014-Sep-28 16:28N 47°17' W 122°25'0 0.0
2014-Sep-28 15:28N 47°17' W 122°25'0 0.0
2014-Sep-28 14:13N 47°17' W 122°25'0 0.1
2014-Sep-28 13:31N 47°17' W 122°25'0 0.1
2014-Sep-28 12:10N 47°17' W 122°25'0 0.0
2014-Sep-28 11:31N 47°17' W 122°25'0 0.2
2014-Sep-28 10:28N 47°17' W 122°25'0 0.0
2014-Sep-28 09:31N 47°17' W 122°25'0 0.1
2014-Sep-28 08:31N 47°17' W 122°25'0 0.0
2014-Sep-28 07:31N 47°17' W 122°25'0 0.1
2014-Sep-28 06:25N 47°17' W 122°25'0 0.1
2014-Sep-28 05:31N 47°17' W 122°25'0 0.1
2014-Sep-28 04:31N 47°17' W 122°25'0 0.1
2014-Sep-28 03:22N 47°17' W 122°25'0 0.0
2014-Sep-28 02:28N 47°17' W 122°25'0 0.0
2014-Sep-28 01:31N 47°17' W 122°25'0 0.1
2014-Sep-28 00:22N 47°17' W 122°25'0 0.1
2014-Sep-27 23:31N 47°17' W 122°25'0 0.0
2014-Sep-27 22:25N 47°17' W 122°25'0 0.0
2014-Sep-27 21:25N 47°17' W 122°25'0 0.0
2014-Sep-27 20:31N 47°17' W 122°25'0 0.1
2014-Sep-27 19:19N 47°17' W 122°25'0 0.1
2014-Sep-27 18:28N 47°17' W 122°25'0 0.0
2014-Sep-27 17:31N 47°17' W 122°25'0 0.0
2014-Sep-27 16:31N 47°17' W 122°25'0 0.1
2014-Sep-27 15:28N 47°17' W 122°25'0 0.1
2014-Sep-27 14:31N 47°17' W 122°25'0 0.0
2014-Sep-27 13:31N 47°17' W 122°25'0 0.0
2014-Sep-27 12:31N 47°17' W 122°25'0 0.0
2014-Sep-27 11:31N 47°17' W 122°25'0 0.1
2014-Sep-27 10:31N 47°17' W 122°25'0 0.0
2014-Sep-27 09:31N 47°17' W 122°25'0 0.1
2014-Sep-27 08:31N 47°17' W 122°25'0 0.1
2014-Sep-27 07:31N 47°17' W 122°25'0 0.1
2014-Sep-27 06:31N 47°17' W 122°25'0 0.0
2014-Sep-27 05:31N 47°17' W 122°25'0 0.1
2014-Sep-27 04:31N 47°17' W 122°25'0 0.1
2014-Sep-27 03:25N 47°17' W 122°25'0 0.1
2014-Sep-27 02:31N 47°17' W 122°25'0 0.1
2014-Sep-27 01:31N 47°17' W 122°25'0 0.0
2014-Sep-27 00:31N 47°17' W 122°25'0 0.1
2014-Sep-26 23:31N 47°17' W 122°25'0 0.0
2014-Sep-26 22:31N 47°17' W 122°25'0 0.1
2014-Sep-26 21:31N 47°17' W 122°25'0 0.0
2014-Sep-26 20:31N 47°17' W 122°25'0 0.1
2014-Sep-26 19:31N 47°17' W 122°25'0 0.0
2014-Sep-26 18:31N 47°17' W 122°25'0 0.0
2014-Sep-26 17:31N 47°17' W 122°25'0 0.1
2014-Sep-26 16:31N 47°17' W 122°25'0 0.0
2014-Sep-26 15:19N 47°17' W 122°25'0 0.0
2014-Sep-26 13:22N 47°17' W 122°25'0 0.1
2014-Sep-26 12:31N 47°17' W 122°25'0 0.1
2014-Sep-26 11:25N 47°17' W 122°25'0 0.1
2014-Sep-26 10:31N 47°17' W 122°25'0 0.0
2014-Sep-26 08:31N 47°17' W 122°25'0 0.0
2014-Sep-26 07:31N 47°17' W 122°25'0 0.0
2014-Sep-26 06:28N 47°17' W 122°25'0 0.0
2014-Sep-26 05:22N 47°17' W 122°25'0 0.0
2014-Sep-26 04:31N 47°17' W 122°25'0 0.1
2014-Sep-26 03:31N 47°17' W 122°25'0 0.1
2014-Sep-26 02:31N 47°17' W 122°25'0 0.1
2014-Sep-26 01:28N 47°17' W 122°25'0 0.0
2014-Sep-25 23:31N 47°17' W 122°25'0 0.0
2014-Sep-25 22:25N 47°17' W 122°25'0 0.1
2014-Sep-25 21:31N 47°17' W 122°25'0 0.1
2014-Sep-25 20:28N 47°17' W 122°25'0 0.1
2014-Sep-25 19:19N 47°17' W 122°25'0 0.1
2014-Sep-25 18:28N 47°17' W 122°25'0 0.0
2014-Sep-25 17:19N 47°17' W 122°25'0 0.1
2014-Sep-25 16:28N 47°17' W 122°25'0 0.1
2014-Sep-25 15:31N 47°17' W 122°25'0 0.1
2014-Sep-25 14:22N 47°17' W 122°25'0 0.0
2014-Sep-25 13:28N 47°17' W 122°25'0 0.2
2014-Sep-25 12:22N 47°17' W 122°25'0 0.0
2014-Sep-25 11:22N 47°17' W 122°25'0 0.0
2014-Sep-25 10:31N 47°17' W 122°25'0 0.2
2014-Sep-25 09:25N 47°17' W 122°25'0 0.1
2014-Sep-25 08:31N 47°17' W 122°25'0 0.1
2014-Sep-25 07:31N 47°17' W 122°25'0 0.0
2014-Sep-25 05:31N 47°17' W 122°25'0 0.1
2014-Sep-25 04:25N 47°17' W 122°25'0 0.0
2014-Sep-25 03:31N 47°17' W 122°25'0 0.1
2014-Sep-25 02:19N 47°17' W 122°25'0 0.1
2014-Sep-25 01:13N 47°17' W 122°25'0 0.1
2014-Sep-25 00:31N 47°17' W 122°25'0 0.1
2014-Sep-24 23:31N 47°17' W 122°25'0 0.0
2014-Sep-24 22:31N 47°17' W 122°25'0 0.1
2014-Sep-24 21:31N 47°17' W 122°25'0 0.1
2014-Sep-24 20:07N 47°17' W 122°25'0 0.0
2014-Sep-24 19:31N 47°17' W 122°25'0 0.0
2014-Sep-24 18:31N 47°17' W 122°25'0 0.1
2014-Sep-24 17:31N 47°17' W 122°25'0 0.2
2014-Sep-24 16:31N 47°17' W 122°25'  

Dump ship's entire track history